sensor_id;sensor_type;location;lat;lon;timestamp;P1;durP1;ratioP1;P2;durP2;ratioP2
10410;SDS011;5251;52.112;8.606;2023-03-09T00:01:50;16.83;;;12.75;;
10410;SDS011;5251;52.112;8.606;2023-03-09T00:04:18;17.60;;;12.95;;
10410;SDS011;5251;52.112;8.606;2023-03-09T00:06:44;18.25;;;13.55;;
10410;SDS011;5251;52.112;8.606;2023-03-09T00:09:10;16.20;;;12.35;;
10410;SDS011;5251;52.112;8.606;2023-03-09T00:11:40;16.90;;;12.18;;
10410;SDS011;5251;52.112;8.606;2023-03-09T00:14:07;17.27;;;12.00;;
10410;SDS011;5251;52.112;8.606;2023-03-09T00:16:33;15.30;;;11.65;;
10410;SDS011;5251;52.112;8.606;2023-03-09T00:19:01;15.65;;;12.05;;
10410;SDS011;5251;52.112;8.606;2023-03-09T00:21:27;15.50;;;11.85;;
10410;SDS011;5251;52.112;8.606;2023-03-09T00:24:02;17.00;;;11.75;;
10410;SDS011;5251;52.112;8.606;2023-03-09T00:26:33;15.13;;;11.48;;
10410;SDS011;5251;52.112;8.606;2023-03-09T00:29:01;16.70;;;12.15;;
10410;SDS011;5251;52.112;8.606;2023-03-09T00:31:28;15.65;;;11.52;;
10410;SDS011;5251;52.112;8.606;2023-03-09T00:33:53;14.45;;;11.45;;
10410;SDS011;5251;52.112;8.606;2023-03-09T00:36:19;13.30;;;10.77;;
10410;SDS011;5251;52.112;8.606;2023-03-09T00:38:49;14.65;;;10.90;;
10410;SDS011;5251;52.112;8.606;2023-03-09T00:41:22;15.63;;;11.43;;
10410;SDS011;5251;52.112;8.606;2023-03-09T00:43:49;13.93;;;10.68;;
10410;SDS011;5251;52.112;8.606;2023-03-09T00:46:15;16.48;;;12.15;;
10410;SDS011;5251;52.112;8.606;2023-03-09T00:48:41;13.55;;;10.70;;
10410;SDS011;5251;52.112;8.606;2023-03-09T00:51:07;13.85;;;10.52;;
10410;SDS011;5251;52.112;8.606;2023-03-09T00:53:34;15.32;;;11.45;;
10410;SDS011;5251;52.112;8.606;2023-03-09T00:56:01;14.70;;;10.90;;
10410;SDS011;5251;52.112;8.606;2023-03-09T00:58:29;14.95;;;10.85;;
10410;SDS011;5251;52.112;8.606;2023-03-09T01:00:54;14.25;;;10.93;;
10410;SDS011;5251;52.112;8.606;2023-03-09T01:03:20;14.25;;;10.55;;
10410;SDS011;5251;52.112;8.606;2023-03-09T01:05:46;13.68;;;10.40;;
10410;SDS011;5251;52.112;8.606;2023-03-09T01:08:11;13.95;;;10.40;;
10410;SDS011;5251;52.112;8.606;2023-03-09T01:10:38;15.57;;;9.85;;
10410;SDS011;5251;52.112;8.606;2023-03-09T01:13:04;12.30;;;9.50;;
10410;SDS011;5251;52.112;8.606;2023-03-09T01:15:30;14.13;;;10.63;;
10410;SDS011;5251;52.112;8.606;2023-03-09T01:17:55;13.43;;;10.20;;
10410;SDS011;5251;52.112;8.606;2023-03-09T01:20:21;14.20;;;10.60;;
10410;SDS011;5251;52.112;8.606;2023-03-09T01:22:47;13.35;;;9.88;;
10410;SDS011;5251;52.112;8.606;2023-03-09T01:25:13;12.60;;;9.88;;
10410;SDS011;5251;52.112;8.606;2023-03-09T01:27:38;13.35;;;10.18;;
10410;SDS011;5251;52.112;8.606;2023-03-09T01:30:04;13.82;;;10.63;;
10410;SDS011;5251;52.112;8.606;2023-03-09T01:32:30;12.98;;;9.82;;
10410;SDS011;5251;52.112;8.606;2023-03-09T01:34:56;13.27;;;9.95;;
10410;SDS011;5251;52.112;8.606;2023-03-09T01:37:22;13.65;;;10.25;;
10410;SDS011;5251;52.112;8.606;2023-03-09T01:39:48;14.18;;;10.55;;
10410;SDS011;5251;52.112;8.606;2023-03-09T01:42:14;15.00;;;11.43;;
10410;SDS011;5251;52.112;8.606;2023-03-09T01:44:40;14.57;;;11.30;;
10410;SDS011;5251;52.112;8.606;2023-03-09T01:47:06;15.07;;;11.50;;
10410;SDS011;5251;52.112;8.606;2023-03-09T01:49:33;15.85;;;12.10;;
10410;SDS011;5251;52.112;8.606;2023-03-09T01:52:22;14.98;;;11.25;;
10410;SDS011;5251;52.112;8.606;2023-03-09T01:55:05;18.00;;;12.35;;
10410;SDS011;5251;52.112;8.606;2023-03-09T01:57:35;16.58;;;12.15;;
10410;SDS011;5251;52.112;8.606;2023-03-09T02:00:13;16.02;;;11.55;;
10410;SDS011;5251;52.112;8.606;2023-03-09T02:02:50;15.88;;;11.82;;
10410;SDS011;5251;52.112;8.606;2023-03-09T02:05:30;16.48;;;12.10;;
10410;SDS011;5251;52.112;8.606;2023-03-09T02:08:09;15.27;;;11.98;;
10410;SDS011;5251;52.112;8.606;2023-03-09T02:10:44;16.88;;;12.38;;
10410;SDS011;5251;52.112;8.606;2023-03-09T02:13:16;16.70;;;12.23;;
10410;SDS011;5251;52.112;8.606;2023-03-09T02:15:45;16.48;;;12.13;;
10410;SDS011;5251;52.112;8.606;2023-03-09T02:18:10;16.48;;;12.13;;
10410;SDS011;5251;52.112;8.606;2023-03-09T02:23:31;17.27;;;12.68;;
10410;SDS011;5251;52.112;8.606;2023-03-09T02:28:45;17.48;;;13.15;;
10410;SDS011;5251;52.112;8.606;2023-03-09T02:31:11;15.52;;;12.10;;
10410;SDS011;5251;52.112;8.606;2023-03-09T02:33:38;14.60;;;10.95;;
10410;SDS011;5251;52.112;8.606;2023-03-09T02:36:04;15.60;;;11.77;;
10410;SDS011;5251;52.112;8.606;2023-03-09T02:38:30;15.02;;;11.93;;
10410;SDS011;5251;52.112;8.606;2023-03-09T02:40:57;16.40;;;12.13;;
10410;SDS011;5251;52.112;8.606;2023-03-09T02:43:26;15.23;;;11.65;;
10410;SDS011;5251;52.112;8.606;2023-03-09T02:45:57;15.25;;;11.60;;
10410;SDS011;5251;52.112;8.606;2023-03-09T02:48:23;14.65;;;11.50;;
10410;SDS011;5251;52.112;8.606;2023-03-09T02:50:48;15.45;;;11.40;;
10410;SDS011;5251;52.112;8.606;2023-03-09T02:53:14;14.25;;;11.00;;
10410;SDS011;5251;52.112;8.606;2023-03-09T02:55:39;13.38;;;10.70;;
10410;SDS011;5251;52.112;8.606;2023-03-09T02:58:05;14.95;;;11.07;;
10410;SDS011;5251;52.112;8.606;2023-03-09T03:00:30;15.48;;;11.95;;
10410;SDS011;5251;52.112;8.606;2023-03-09T03:02:56;14.80;;;11.75;;
10410;SDS011;5251;52.112;8.606;2023-03-09T03:05:21;13.32;;;10.38;;
10410;SDS011;5251;52.112;8.606;2023-03-09T03:07:47;13.88;;;11.18;;
10410;SDS011;5251;52.112;8.606;2023-03-09T03:10:13;13.82;;;10.93;;
10410;SDS011;5251;52.112;8.606;2023-03-09T03:12:39;14.05;;;10.75;;
10410;SDS011;5251;52.112;8.606;2023-03-09T03:15:05;11.93;;;9.82;;
10410;SDS011;5251;52.112;8.606;2023-03-09T03:17:31;12.73;;;10.52;;
10410;SDS011;5251;52.112;8.606;2023-03-09T03:19:56;13.55;;;10.68;;
10410;SDS011;5251;52.112;8.606;2023-03-09T03:22:22;13.75;;;10.45;;
10410;SDS011;5251;52.112;8.606;2023-03-09T03:24:48;14.18;;;11.32;;
10410;SDS011;5251;52.112;8.606;2023-03-09T03:27:14;12.90;;;10.00;;
10410;SDS011;5251;52.112;8.606;2023-03-09T03:29:40;14.77;;;11.38;;
10410;SDS011;5251;52.112;8.606;2023-03-09T03:32:05;14.05;;;11.15;;
10410;SDS011;5251;52.112;8.606;2023-03-09T03:34:31;14.77;;;11.55;;
10410;SDS011;5251;52.112;8.606;2023-03-09T03:36:57;14.40;;;11.43;;
10410;SDS011;5251;52.112;8.606;2023-03-09T03:39:23;14.43;;;11.27;;
10410;SDS011;5251;52.112;8.606;2023-03-09T03:41:48;13.43;;;10.60;;
10410;SDS011;5251;52.112;8.606;2023-03-09T03:44:14;14.40;;;10.73;;
10410;SDS011;5251;52.112;8.606;2023-03-09T03:46:39;13.63;;;11.02;;
10410;SDS011;5251;52.112;8.606;2023-03-09T03:49:05;13.98;;;10.82;;
10410;SDS011;5251;52.112;8.606;2023-03-09T03:51:31;14.25;;;10.50;;
10410;SDS011;5251;52.112;8.606;2023-03-09T03:53:57;15.10;;;11.00;;
10410;SDS011;5251;52.112;8.606;2023-03-09T03:56:22;13.02;;;10.35;;
10410;SDS011;5251;52.112;8.606;2023-03-09T03:58:48;14.30;;;10.98;;
10410;SDS011;5251;52.112;8.606;2023-03-09T04:01:13;13.88;;;11.18;;
10410;SDS011;5251;52.112;8.606;2023-03-09T04:03:39;14.63;;;10.65;;
10410;SDS011;5251;52.112;8.606;2023-03-09T04:06:05;14.35;;;10.98;;
10410;SDS011;5251;52.112;8.606;2023-03-09T04:08:31;13.50;;;10.85;;
10410;SDS011;5251;52.112;8.606;2023-03-09T04:10:57;14.10;;;10.82;;
10410;SDS011;5251;52.112;8.606;2023-03-09T04:13:23;14.35;;;11.18;;
10410;SDS011;5251;52.112;8.606;2023-03-09T04:15:48;13.60;;;11.38;;
10410;SDS011;5251;52.112;8.606;2023-03-09T04:18:14;14.80;;;11.05;;
10410;SDS011;5251;52.112;8.606;2023-03-09T04:20:40;14.02;;;11.32;;
10410;SDS011;5251;52.112;8.606;2023-03-09T04:23:07;13.63;;;10.02;;
10410;SDS011;5251;52.112;8.606;2023-03-09T04:25:32;13.05;;;9.98;;
10410;SDS011;5251;52.112;8.606;2023-03-09T04:27:58;13.90;;;10.95;;
10410;SDS011;5251;52.112;8.606;2023-03-09T04:30:24;13.32;;;10.52;;
10410;SDS011;5251;52.112;8.606;2023-03-09T04:32:49;13.75;;;10.90;;
10410;SDS011;5251;52.112;8.606;2023-03-09T04:35:15;12.60;;;10.50;;
10410;SDS011;5251;52.112;8.606;2023-03-09T04:37:41;15.20;;;9.93;;
10410;SDS011;5251;52.112;8.606;2023-03-09T04:40:10;13.07;;;9.90;;
10410;SDS011;5251;52.112;8.606;2023-03-09T04:42:36;13.05;;;9.93;;
10410;SDS011;5251;52.112;8.606;2023-03-09T04:45:03;13.48;;;10.43;;
10410;SDS011;5251;52.112;8.606;2023-03-09T04:47:29;12.75;;;9.57;;
10410;SDS011;5251;52.112;8.606;2023-03-09T04:49:55;12.88;;;9.70;;
10410;SDS011;5251;52.112;8.606;2023-03-09T04:52:21;12.85;;;9.38;;
10410;SDS011;5251;52.112;8.606;2023-03-09T04:54:47;12.35;;;10.00;;
10410;SDS011;5251;52.112;8.606;2023-03-09T04:57:13;12.57;;;9.68;;
10410;SDS011;5251;52.112;8.606;2023-03-09T04:59:39;12.48;;;9.68;;
10410;SDS011;5251;52.112;8.606;2023-03-09T05:02:04;12.50;;;10.07;;
10410;SDS011;5251;52.112;8.606;2023-03-09T05:04:30;12.98;;;10.50;;
10410;SDS011;5251;52.112;8.606;2023-03-09T05:06:56;13.63;;;10.35;;
10410;SDS011;5251;52.112;8.606;2023-03-09T05:09:22;13.02;;;10.40;;
10410;SDS011;5251;52.112;8.606;2023-03-09T05:11:47;13.73;;;10.27;;
10410;SDS011;5251;52.112;8.606;2023-03-09T05:14:20;12.23;;;9.52;;
10410;SDS011;5251;52.112;8.606;2023-03-09T05:16:48;13.30;;;10.13;;
10410;SDS011;5251;52.112;8.606;2023-03-09T05:19:16;12.07;;;9.55;;
10410;SDS011;5251;52.112;8.606;2023-03-09T05:21:42;13.93;;;10.25;;
10410;SDS011;5251;52.112;8.606;2023-03-09T05:24:08;13.32;;;10.18;;
10410;SDS011;5251;52.112;8.606;2023-03-09T05:26:34;12.32;;;9.85;;
10410;SDS011;5251;52.112;8.606;2023-03-09T05:28:59;11.88;;;9.70;;
10410;SDS011;5251;52.112;8.606;2023-03-09T05:31:25;12.95;;;10.07;;
10410;SDS011;5251;52.112;8.606;2023-03-09T05:33:51;13.20;;;10.18;;
10410;SDS011;5251;52.112;8.606;2023-03-09T05:36:26;15.02;;;10.80;;
10410;SDS011;5251;52.112;8.606;2023-03-09T05:38:52;14.60;;;11.35;;
10410;SDS011;5251;52.112;8.606;2023-03-09T05:41:18;13.48;;;9.98;;
10410;SDS011;5251;52.112;8.606;2023-03-09T05:43:45;13.63;;;10.50;;
10410;SDS011;5251;52.112;8.606;2023-03-09T05:46:11;13.65;;;10.38;;
10410;SDS011;5251;52.112;8.606;2023-03-09T05:48:39;13.65;;;10.88;;
10410;SDS011;5251;52.112;8.606;2023-03-09T05:51:05;14.02;;;10.93;;
10410;SDS011;5251;52.112;8.606;2023-03-09T05:53:33;12.60;;;10.07;;
10410;SDS011;5251;52.112;8.606;2023-03-09T05:55:59;12.95;;;10.23;;
10410;SDS011;5251;52.112;8.606;2023-03-09T05:58:24;14.23;;;10.60;;
10410;SDS011;5251;52.112;8.606;2023-03-09T06:00:50;14.23;;;10.35;;
10410;SDS011;5251;52.112;8.606;2023-03-09T06:03:18;13.35;;;10.48;;
10410;SDS011;5251;52.112;8.606;2023-03-09T06:05:44;13.93;;;10.00;;
10410;SDS011;5251;52.112;8.606;2023-03-09T06:08:10;14.65;;;10.73;;
10410;SDS011;5251;52.112;8.606;2023-03-09T06:10:36;13.75;;;11.10;;
10410;SDS011;5251;52.112;8.606;2023-03-09T06:13:01;13.57;;;10.05;;
10410;SDS011;5251;52.112;8.606;2023-03-09T06:15:27;14.63;;;10.63;;
10410;SDS011;5251;52.112;8.606;2023-03-09T06:17:53;13.52;;;10.80;;
10410;SDS011;5251;52.112;8.606;2023-03-09T06:20:18;14.18;;;9.98;;
10410;SDS011;5251;52.112;8.606;2023-03-09T06:22:44;13.82;;;10.63;;
10410;SDS011;5251;52.112;8.606;2023-03-09T06:25:10;15.10;;;11.27;;
10410;SDS011;5251;52.112;8.606;2023-03-09T06:27:36;13.20;;;10.25;;
10410;SDS011;5251;52.112;8.606;2023-03-09T06:30:02;12.77;;;10.27;;
10410;SDS011;5251;52.112;8.606;2023-03-09T06:32:30;14.32;;;10.98;;
10410;SDS011;5251;52.112;8.606;2023-03-09T06:34:57;16.05;;;11.27;;
10410;SDS011;5251;52.112;8.606;2023-03-09T06:37:23;14.43;;;11.00;;
10410;SDS011;5251;52.112;8.606;2023-03-09T06:39:48;14.02;;;10.95;;
10410;SDS011;5251;52.112;8.606;2023-03-09T06:42:14;14.15;;;10.77;;
10410;SDS011;5251;52.112;8.606;2023-03-09T06:44:39;13.55;;;10.82;;
10410;SDS011;5251;52.112;8.606;2023-03-09T06:47:07;14.85;;;11.82;;
10410;SDS011;5251;52.112;8.606;2023-03-09T06:49:33;16.20;;;12.65;;
10410;SDS011;5251;52.112;8.606;2023-03-09T06:51:59;14.98;;;10.98;;
10410;SDS011;5251;52.112;8.606;2023-03-09T06:54:24;15.82;;;12.07;;
10410;SDS011;5251;52.112;8.606;2023-03-09T06:56:50;14.38;;;11.18;;
10410;SDS011;5251;52.112;8.606;2023-03-09T06:59:16;13.18;;;10.57;;
10410;SDS011;5251;52.112;8.606;2023-03-09T07:01:42;16.05;;;12.05;;
10410;SDS011;5251;52.112;8.606;2023-03-09T07:04:08;15.30;;;11.85;;
10410;SDS011;5251;52.112;8.606;2023-03-09T07:06:33;16.00;;;11.60;;
10410;SDS011;5251;52.112;8.606;2023-03-09T07:08:59;15.32;;;11.68;;
10410;SDS011;5251;52.112;8.606;2023-03-09T07:11:25;13.57;;;11.00;;
10410;SDS011;5251;52.112;8.606;2023-03-09T07:13:50;14.10;;;10.98;;
10410;SDS011;5251;52.112;8.606;2023-03-09T07:16:16;14.93;;;11.20;;
10410;SDS011;5251;52.112;8.606;2023-03-09T07:18:41;15.18;;;11.35;;
10410;SDS011;5251;52.112;8.606;2023-03-09T07:21:08;13.70;;;10.85;;
10410;SDS011;5251;52.112;8.606;2023-03-09T07:23:35;14.50;;;10.93;;
10410;SDS011;5251;52.112;8.606;2023-03-09T07:26:01;14.90;;;11.35;;
10410;SDS011;5251;52.112;8.606;2023-03-09T07:28:28;14.85;;;11.60;;
10410;SDS011;5251;52.112;8.606;2023-03-09T07:30:55;15.27;;;11.50;;
10410;SDS011;5251;52.112;8.606;2023-03-09T07:33:20;14.15;;;11.10;;
10410;SDS011;5251;52.112;8.606;2023-03-09T07:35:46;15.60;;;11.55;;
10410;SDS011;5251;52.112;8.606;2023-03-09T07:38:12;15.43;;;11.38;;
10410;SDS011;5251;52.112;8.606;2023-03-09T07:40:37;14.20;;;11.15;;
10410;SDS011;5251;52.112;8.606;2023-03-09T07:43:03;14.32;;;10.73;;
10410;SDS011;5251;52.112;8.606;2023-03-09T07:45:29;14.85;;;11.27;;
10410;SDS011;5251;52.112;8.606;2023-03-09T07:47:55;15.18;;;11.13;;
10410;SDS011;5251;52.112;8.606;2023-03-09T07:50:20;15.88;;;12.13;;
10410;SDS011;5251;52.112;8.606;2023-03-09T07:52:46;15.63;;;11.27;;
10410;SDS011;5251;52.112;8.606;2023-03-09T07:55:12;16.42;;;12.27;;
10410;SDS011;5251;52.112;8.606;2023-03-09T07:57:39;15.30;;;11.20;;
10410;SDS011;5251;52.112;8.606;2023-03-09T08:00:06;15.52;;;11.18;;
10410;SDS011;5251;52.112;8.606;2023-03-09T08:02:36;14.88;;;11.18;;
10410;SDS011;5251;52.112;8.606;2023-03-09T08:05:04;15.35;;;11.77;;
10410;SDS011;5251;52.112;8.606;2023-03-09T08:07:31;17.25;;;12.05;;
10410;SDS011;5251;52.112;8.606;2023-03-09T08:09:57;16.17;;;12.30;;
10410;SDS011;5251;52.112;8.606;2023-03-09T08:12:23;18.42;;;12.90;;
10410;SDS011;5251;52.112;8.606;2023-03-09T08:14:48;17.00;;;12.40;;
10410;SDS011;5251;52.112;8.606;2023-03-09T08:17:14;16.23;;;11.98;;
10410;SDS011;5251;52.112;8.606;2023-03-09T08:19:39;17.75;;;12.18;;
10410;SDS011;5251;52.112;8.606;2023-03-09T08:22:05;15.48;;;11.93;;
10410;SDS011;5251;52.112;8.606;2023-03-09T08:24:31;15.52;;;11.60;;
10410;SDS011;5251;52.112;8.606;2023-03-09T08:26:56;16.08;;;11.93;;
10410;SDS011;5251;52.112;8.606;2023-03-09T08:29:23;15.40;;;12.05;;
10410;SDS011;5251;52.112;8.606;2023-03-09T08:31:48;16.20;;;12.57;;
10410;SDS011;5251;52.112;8.606;2023-03-09T08:34:14;16.58;;;12.05;;
10410;SDS011;5251;52.112;8.606;2023-03-09T08:36:43;16.65;;;12.15;;
10410;SDS011;5251;52.112;8.606;2023-03-09T08:39:09;16.90;;;12.02;;
10410;SDS011;5251;52.112;8.606;2023-03-09T08:41:35;16.88;;;11.82;;
10410;SDS011;5251;52.112;8.606;2023-03-09T08:44:00;17.30;;;12.52;;
10410;SDS011;5251;52.112;8.606;2023-03-09T08:46:26;16.75;;;12.73;;
10410;SDS011;5251;52.112;8.606;2023-03-09T08:48:52;16.65;;;12.15;;
10410;SDS011;5251;52.112;8.606;2023-03-09T08:51:17;16.55;;;12.05;;
10410;SDS011;5251;52.112;8.606;2023-03-09T08:53:43;16.90;;;12.25;;
10410;SDS011;5251;52.112;8.606;2023-03-09T08:56:12;16.83;;;11.75;;
10410;SDS011;5251;52.112;8.606;2023-03-09T08:58:39;17.42;;;11.95;;
10410;SDS011;5251;52.112;8.606;2023-03-09T09:01:05;18.92;;;12.57;;
10410;SDS011;5251;52.112;8.606;2023-03-09T09:03:33;16.30;;;11.98;;
10410;SDS011;5251;52.112;8.606;2023-03-09T09:06:03;15.85;;;12.10;;
10410;SDS011;5251;52.112;8.606;2023-03-09T09:08:30;15.90;;;11.50;;
10410;SDS011;5251;52.112;8.606;2023-03-09T09:10:56;15.55;;;11.27;;
10410;SDS011;5251;52.112;8.606;2023-03-09T09:13:24;14.80;;;11.23;;
10410;SDS011;5251;52.112;8.606;2023-03-09T09:15:53;14.60;;;11.05;;
10410;SDS011;5251;52.112;8.606;2023-03-09T09:18:19;15.13;;;11.13;;
10410;SDS011;5251;52.112;8.606;2023-03-09T09:20:45;16.52;;;11.70;;
10410;SDS011;5251;52.112;8.606;2023-03-09T09:23:11;15.02;;;11.10;;
10410;SDS011;5251;52.112;8.606;2023-03-09T09:25:36;14.07;;;11.13;;
10410;SDS011;5251;52.112;8.606;2023-03-09T09:28:02;14.35;;;10.93;;
10410;SDS011;5251;52.112;8.606;2023-03-09T09:30:28;13.40;;;10.70;;
10410;SDS011;5251;52.112;8.606;2023-03-09T09:32:57;15.20;;;11.25;;
10410;SDS011;5251;52.112;8.606;2023-03-09T09:35:23;15.75;;;11.60;;
10410;SDS011;5251;52.112;8.606;2023-03-09T09:37:49;15.18;;;11.32;;
10410;SDS011;5251;52.112;8.606;2023-03-09T09:40:17;15.27;;;10.77;;
10410;SDS011;5251;52.112;8.606;2023-03-09T09:42:43;14.88;;;11.25;;
10410;SDS011;5251;52.112;8.606;2023-03-09T09:45:22;13.73;;;10.30;;
10410;SDS011;5251;52.112;8.606;2023-03-09T09:47:54;13.85;;;10.52;;
10410;SDS011;5251;52.112;8.606;2023-03-09T09:50:26;13.32;;;10.18;;
10410;SDS011;5251;52.112;8.606;2023-03-09T09:53:01;15.13;;;11.50;;
10410;SDS011;5251;52.112;8.606;2023-03-09T09:55:45;15.88;;;11.07;;
10410;SDS011;5251;52.112;8.606;2023-03-09T09:58:25;15.13;;;10.85;;
10410;SDS011;5251;52.112;8.606;2023-03-09T10:01:00;15.15;;;10.80;;
10410;SDS011;5251;52.112;8.606;2023-03-09T10:03:32;14.48;;;10.52;;
10410;SDS011;5251;52.112;8.606;2023-03-09T10:11:35;14.07;;;10.75;;
10410;SDS011;5251;52.112;8.606;2023-03-09T10:19:37;15.32;;;11.43;;
10410;SDS011;5251;52.112;8.606;2023-03-09T10:22:26;15.13;;;11.25;;
10410;SDS011;5251;52.112;8.606;2023-03-09T10:24:54;14.73;;;10.75;;
10410;SDS011;5251;52.112;8.606;2023-03-09T10:27:26;13.13;;;10.63;;
10410;SDS011;5251;52.112;8.606;2023-03-09T10:37:44;16.17;;;13.38;;
10410;SDS011;5251;52.112;8.606;2023-03-09T10:40:19;18.90;;;16.90;;
10410;SDS011;5251;52.112;8.606;2023-03-09T10:42:50;15.25;;;11.75;;
10410;SDS011;5251;52.112;8.606;2023-03-09T10:45:49;12.98;;;10.65;;
10410;SDS011;5251;52.112;8.606;2023-03-09T10:48:07;15.05;;;11.00;;
10410;SDS011;5251;52.112;8.606;2023-03-09T10:50:55;12.63;;;10.23;;
10410;SDS011;5251;52.112;8.606;2023-03-09T10:56:20;13.05;;;10.55;;
10410;SDS011;5251;52.112;8.606;2023-03-09T11:01:38;16.70;;;11.23;;
10410;SDS011;5251;52.112;8.606;2023-03-09T11:06:50;17.85;;;11.32;;
10410;SDS011;5251;52.112;8.606;2023-03-09T11:09:21;14.27;;;10.50;;
10410;SDS011;5251;52.112;8.606;2023-03-09T11:12:06;16.05;;;10.65;;
10410;SDS011;5251;52.112;8.606;2023-03-09T11:14:57;17.33;;;12.00;;
10410;SDS011;5251;52.112;8.606;2023-03-09T11:22:37;16.63;;;12.20;;
10410;SDS011;5251;52.112;8.606;2023-03-09T11:25:17;15.85;;;11.38;;
10410;SDS011;5251;52.112;8.606;2023-03-09T11:27:59;14.57;;;10.80;;
10410;SDS011;5251;52.112;8.606;2023-03-09T11:30:30;15.27;;;11.63;;
10410;SDS011;5251;52.112;8.606;2023-03-09T11:32:56;13.15;;;10.57;;
10410;SDS011;5251;52.112;8.606;2023-03-09T11:35:22;16.38;;;11.68;;
10410;SDS011;5251;52.112;8.606;2023-03-09T11:38:01;14.45;;;11.15;;
10410;SDS011;5251;52.112;8.606;2023-03-09T11:40:32;17.65;;;11.95;;
10410;SDS011;5251;52.112;8.606;2023-03-09T11:43:04;16.95;;;12.13;;
10410;SDS011;5251;52.112;8.606;2023-03-09T11:45:41;15.60;;;11.35;;
10410;SDS011;5251;52.112;8.606;2023-03-09T11:50:44;13.95;;;11.07;;
10410;SDS011;5251;52.112;8.606;2023-03-09T11:53:26;14.35;;;10.45;;
10410;SDS011;5251;52.112;8.606;2023-03-09T11:56:08;15.48;;;11.13;;
10410;SDS011;5251;52.112;8.606;2023-03-09T11:58:48;13.48;;;10.02;;
10410;SDS011;5251;52.112;8.606;2023-03-09T12:02:20;12.77;;;9.77;;
10410;SDS011;5251;52.112;8.606;2023-03-09T12:04:25;13.25;;;9.95;;
10410;SDS011;5251;52.112;8.606;2023-03-09T12:10:06;13.63;;;9.88;;
10410;SDS011;5251;52.112;8.606;2023-03-09T12:12:48;13.20;;;10.43;;
10410;SDS011;5251;52.112;8.606;2023-03-09T12:18:20;13.60;;;10.13;;
10410;SDS011;5251;52.112;8.606;2023-03-09T12:20:55;12.80;;;10.27;;
10410;SDS011;5251;52.112;8.606;2023-03-09T12:26:04;13.00;;;10.05;;
10410;SDS011;5251;52.112;8.606;2023-03-09T12:28:39;12.98;;;10.48;;
10410;SDS011;5251;52.112;8.606;2023-03-09T12:31:05;14.32;;;10.50;;
10410;SDS011;5251;52.112;8.606;2023-03-09T12:36:28;15.13;;;10.90;;
10410;SDS011;5251;52.112;8.606;2023-03-09T12:47:22;13.77;;;10.82;;
10410;SDS011;5251;52.112;8.606;2023-03-09T12:49:49;14.85;;;10.90;;
10410;SDS011;5251;52.112;8.606;2023-03-09T12:57:42;13.55;;;11.02;;
10410;SDS011;5251;52.112;8.606;2023-03-09T13:02:44;13.65;;;10.77;;
10410;SDS011;5251;52.112;8.606;2023-03-09T13:07:59;14.00;;;10.88;;
10410;SDS011;5251;52.112;8.606;2023-03-09T13:10:29;14.25;;;10.63;;
10410;SDS011;5251;52.112;8.606;2023-03-09T13:16:48;14.77;;;11.52;;
10410;SDS011;5251;52.112;8.606;2023-03-09T13:21:41;13.93;;;10.70;;
10410;SDS011;5251;52.112;8.606;2023-03-09T13:24:11;15.15;;;11.23;;
10410;SDS011;5251;52.112;8.606;2023-03-09T13:27:48;16.90;;;12.27;;
10410;SDS011;5251;52.112;8.606;2023-03-09T13:29:53;14.75;;;11.60;;
10410;SDS011;5251;52.112;8.606;2023-03-09T13:32:40;13.80;;;9.93;;
10410;SDS011;5251;52.112;8.606;2023-03-09T13:35:14;14.65;;;11.25;;
10410;SDS011;5251;52.112;8.606;2023-03-09T13:37:49;15.27;;;11.38;;
10410;SDS011;5251;52.112;8.606;2023-03-09T13:40:25;15.82;;;11.48;;
10410;SDS011;5251;52.112;8.606;2023-03-09T13:42:54;15.57;;;11.10;;
10410;SDS011;5251;52.112;8.606;2023-03-09T13:45:24;15.18;;;11.30;;
10410;SDS011;5251;52.112;8.606;2023-03-09T13:47:52;15.80;;;11.38;;
10410;SDS011;5251;52.112;8.606;2023-03-09T13:50:20;12.68;;;10.13;;
10410;SDS011;5251;52.112;8.606;2023-03-09T13:52:57;14.90;;;11.15;;
10410;SDS011;5251;52.112;8.606;2023-03-09T13:55:27;14.75;;;11.20;;
10410;SDS011;5251;52.112;8.606;2023-03-09T13:57:54;15.93;;;11.48;;
10410;SDS011;5251;52.112;8.606;2023-03-09T14:00:50;15.35;;;11.90;;
10410;SDS011;5251;52.112;8.606;2023-03-09T14:03:16;14.73;;;10.70;;
10410;SDS011;5251;52.112;8.606;2023-03-09T14:05:41;15.13;;;11.60;;
10410;SDS011;5251;52.112;8.606;2023-03-09T14:08:17;15.50;;;11.57;;
10410;SDS011;5251;52.112;8.606;2023-03-09T14:10:45;16.83;;;11.90;;
10410;SDS011;5251;52.112;8.606;2023-03-09T14:13:12;14.80;;;11.00;;
10410;SDS011;5251;52.112;8.606;2023-03-09T14:15:41;16.85;;;11.80;;
10410;SDS011;5251;52.112;8.606;2023-03-09T14:18:46;16.05;;;11.55;;
10410;SDS011;5251;52.112;8.606;2023-03-09T14:23:53;16.70;;;12.20;;
10410;SDS011;5251;52.112;8.606;2023-03-09T14:26:27;15.65;;;11.57;;
10410;SDS011;5251;52.112;8.606;2023-03-09T14:29:37;16.08;;;11.45;;
10410;SDS011;5251;52.112;8.606;2023-03-09T14:31:46;15.50;;;11.20;;
10410;SDS011;5251;52.112;8.606;2023-03-09T14:36:51;15.85;;;11.23;;
10410;SDS011;5251;52.112;8.606;2023-03-09T14:39:22;15.20;;;11.18;;
10410;SDS011;5251;52.112;8.606;2023-03-09T14:44:39;16.00;;;11.70;;
10410;SDS011;5251;52.112;8.606;2023-03-09T14:47:19;17.35;;;11.68;;
10410;SDS011;5251;52.112;8.606;2023-03-09T14:49:45;16.27;;;11.52;;
10410;SDS011;5251;52.112;8.606;2023-03-09T14:52:12;15.23;;;10.73;;
10410;SDS011;5251;52.112;8.606;2023-03-09T14:54:38;15.48;;;10.95;;
10410;SDS011;5251;52.112;8.606;2023-03-09T14:57:04;15.20;;;11.45;;
10410;SDS011;5251;52.112;8.606;2023-03-09T14:59:30;14.98;;;10.90;;
10410;SDS011;5251;52.112;8.606;2023-03-09T15:01:56;13.80;;;10.57;;
10410;SDS011;5251;52.112;8.606;2023-03-09T15:04:25;16.13;;;11.20;;
10410;SDS011;5251;52.112;8.606;2023-03-09T15:06:53;14.48;;;10.75;;
10410;SDS011;5251;52.112;8.606;2023-03-09T15:09:19;14.43;;;10.48;;
10410;SDS011;5251;52.112;8.606;2023-03-09T15:11:46;14.70;;;10.75;;
10410;SDS011;5251;52.112;8.606;2023-03-09T15:14:18;13.80;;;10.23;;
10410;SDS011;5251;52.112;8.606;2023-03-09T15:16:55;14.50;;;10.10;;
10410;SDS011;5251;52.112;8.606;2023-03-09T15:19:21;15.45;;;10.70;;
10410;SDS011;5251;52.112;8.606;2023-03-09T15:21:47;13.82;;;10.52;;
10410;SDS011;5251;52.112;8.606;2023-03-09T15:24:16;14.50;;;11.30;;
10410;SDS011;5251;52.112;8.606;2023-03-09T15:26:41;13.77;;;10.68;;
10410;SDS011;5251;52.112;8.606;2023-03-09T15:29:07;16.05;;;11.60;;
10410;SDS011;5251;52.112;8.606;2023-03-09T15:31:32;15.50;;;11.95;;
10410;SDS011;5251;52.112;8.606;2023-03-09T15:33:58;16.50;;;11.50;;
10410;SDS011;5251;52.112;8.606;2023-03-09T15:36:24;15.90;;;11.32;;
10410;SDS011;5251;52.112;8.606;2023-03-09T15:38:50;15.00;;;11.27;;
10410;SDS011;5251;52.112;8.606;2023-03-09T15:41:16;16.45;;;11.30;;
10410;SDS011;5251;52.112;8.606;2023-03-09T15:43:42;14.63;;;10.98;;
10410;SDS011;5251;52.112;8.606;2023-03-09T15:46:08;15.38;;;11.88;;
10410;SDS011;5251;52.112;8.606;2023-03-09T15:48:33;15.95;;;11.63;;
10410;SDS011;5251;52.112;8.606;2023-03-09T15:50:59;18.02;;;10.95;;
10410;SDS011;5251;52.112;8.606;2023-03-09T15:53:25;15.20;;;10.65;;
10410;SDS011;5251;52.112;8.606;2023-03-09T15:56:10;14.95;;;10.80;;
10410;SDS011;5251;52.112;8.606;2023-03-09T15:58:36;16.05;;;11.27;;
10410;SDS011;5251;52.112;8.606;2023-03-09T16:01:04;16.60;;;11.70;;
10410;SDS011;5251;52.112;8.606;2023-03-09T16:03:31;16.38;;;11.35;;
10410;SDS011;5251;52.112;8.606;2023-03-09T16:05:58;16.45;;;11.55;;
10410;SDS011;5251;52.112;8.606;2023-03-09T16:08:24;16.70;;;12.18;;
10410;SDS011;5251;52.112;8.606;2023-03-09T16:10:51;17.08;;;11.85;;